Time;durP1;ratioP1;P1;durP2;ratioP2;P2;SDS_P1;SDS_P2;PMS_P1;PMS_P2;Temp;Humidity;BMP_temperature;BMP_pressure;BME280_temperature;BME280_humidity;BME280_pressure;Samples;Min_cycle;Max_cycle;Signal;HPM_P1;HPM_P2
2021/01/18 00:01:53;;;;;;;16.73;4.00;;;9.90;99.90;;;;;;4928366;29;20232;-85
2021/01/18 00:07:09;;;;;;;19.40;4.50;;;10.00;99.90;;;;;;4942626;29;20200;-87
2021/01/18 00:09:42;;;;;;;20.00;3.77;;;9.90;99.90;;;;;;4939195;29;20242;-87
2021/01/18 00:12:14;;;;;;;19.77;4.97;;;9.80;99.90;;;;;;4934398;29;20247;-89
2021/01/18 00:14:46;;;;;;;22.23;4.43;;;9.70;99.90;;;;;;4939379;29;20268;-88
2021/01/18 00:17:19;;;;;;;18.90;4.73;;;9.70;99.90;;;;;;4931641;29;20249;-82
2021/01/18 00:19:50;;;;;;;13.90;3.43;;;9.60;99.90;;;;;;4925790;29;20216;-82
2021/01/18 00:22:22;;;;;;;18.50;4.83;;;9.50;99.90;;;;;;4935723;29;20297;-82
2021/01/18 00:24:56;;;;;;;15.80;3.67;;;9.50;99.90;;;;;;4924759;29;20239;-82
2021/01/18 00:27:28;;;;;;;20.40;4.83;;;9.50;99.90;;;;;;4923052;29;20621;-83
2021/01/18 00:29:58;;;;;;;25.57;5.70;;;9.50;99.90;;;;;;4924444;29;20244;-81
2021/01/18 00:32:29;;;;;;;18.10;4.10;;;9.40;99.90;;;;;;4930195;29;20688;-85
2021/01/18 00:35:00;;;;;;;22.30;4.80;;;9.40;99.90;;;;;;4931516;29;20266;-83
2021/01/18 00:37:30;;;;;;;15.87;4.13;;;9.30;99.90;;;;;;4943512;29;20680;-83
2021/01/18 00:40:13;;;;;;;17.80;4.20;;;9.30;99.90;;;;;;4944195;29;20212;-82
2021/01/18 00:42:47;;;;;;;21.47;5.07;;;9.30;99.90;;;;;;4939177;29;20200;-83
2021/01/18 00:45:19;;;;;;;21.20;5.23;;;9.20;99.90;;;;;;4945559;29;20212;-83
2021/01/18 00:47:56;;;;;;;20.70;4.67;;;9.10;99.90;;;;;;4931619;29;20299;-83
2021/01/18 00:50:28;;;;;;;17.60;4.13;;;9.00;99.90;;;;;;4937733;29;20227;-83
2021/01/18 00:52:59;;;;;;;17.97;4.27;;;8.90;99.90;;;;;;4938672;29;20258;-83
2021/01/18 00:55:31;;;;;;;19.03;4.53;;;8.90;99.90;;;;;;4936393;29;20579;-82
2021/01/18 00:58:01;;;;;;;23.17;4.60;;;8.80;99.90;;;;;;4926904;29;20205;-82
2021/01/18 01:00:32;;;;;;;22.03;5.33;;;8.70;99.90;;;;;;4932869;29;20212;-82
2021/01/18 01:03:04;;;;;;;19.80;4.50;;;8.70;99.90;;;;;;4935162;29;20250;-83
2021/01/18 01:05:34;;;;;;;20.57;4.83;;;8.60;99.90;;;;;;4924239;29;20221;-82
2021/01/18 01:08:05;;;;;;;23.60;5.20;;;8.50;99.90;;;;;;4930882;29;20204;-81
2021/01/18 01:10:37;;;;;;;24.77;5.73;;;8.40;99.90;;;;;;4933902;29;20299;-83
2021/01/18 01:13:07;;;;;;;23.77;5.77;;;8.40;99.90;;;;;;4931900;29;20247;-82
2021/01/18 01:15:38;;;;;;;25.00;5.13;;;8.30;99.90;;;;;;4933949;29;20228;-83
2021/01/18 01:18:08;;;;;;;25.73;5.67;;;8.30;99.90;;;;;;4915793;29;20217;-81
2021/01/18 01:20:37;;;;;;;24.00;5.90;;;8.30;99.90;;;;;;4917178;29;20575;-82
2021/01/18 01:23:07;;;;;;;19.73;4.97;;;8.20;99.90;;;;;;4913078;29;20221;-82
2021/01/18 01:25:49;;;;;;;17.83;5.07;;;8.10;99.90;;;;;;4931476;29;20254;-82
2021/01/18 01:28:23;;;;;;;19.17;5.27;;;8.10;99.90;;;;;;4929249;29;20246;-80
2021/01/18 01:30:53;;;;;;;22.67;5.63;;;7.90;99.90;;;;;;4915269;29;20269;-81
2021/01/18 01:33:23;;;;;;;21.40;5.10;;;7.90;99.90;;;;;;4931232;29;20236;-81
2021/01/18 01:35:53;;;;;;;20.30;5.27;;;7.90;99.90;;;;;;4917268;29;20229;-83
2021/01/18 01:38:23;;;;;;;17.53;4.60;;;7.90;99.90;;;;;;4930232;28;20862;-82
2021/01/18 01:40:59;;;;;;;19.30;5.70;;;7.80;99.90;;;;;;4947973;29;20227;-81
2021/01/18 01:43:42;;;;;;;19.07;5.63;;;7.80;99.90;;;;;;4939750;29;20222;-85
2021/01/18 01:46:16;;;;;;;19.87;6.07;;;7.70;99.90;;;;;;4598332;28;9999879;-83
2021/01/18 01:48:48;;;;;;;30.93;9.83;;;7.60;99.90;;;;;;4917822;29;21469;-82
2021/01/18 01:51:18;;;;;;;28.93;8.70;;;7.60;99.90;;;;;;4933219;29;20227;-82
2021/01/18 01:53:48;;;;;;;27.40;7.37;;;7.50;99.90;;;;;;4936854;29;20239;-82
2021/01/18 01:59:11;;;;;;;32.93;9.33;;;7.40;99.90;;;;;;4940675;28;20215;-83
2021/01/18 02:02:02;;;;;;;22.87;6.77;;;7.20;99.90;;;;;;4924367;29;20227;-83
2021/01/18 02:04:38;;;;;;;22.80;7.07;;;7.20;99.90;;;;;;4933726;29;21009;-85
2021/01/18 02:07:23;;;;;;;23.73;7.20;;;7.10;99.90;;;;;;4937535;29;20212;-84
2021/01/18 02:09:54;;;;;;;23.87;6.37;;;7.10;99.90;;;;;;4940974;29;20271;-86
2021/01/18 02:12:28;;;;;;;27.23;6.70;;;7.00;99.90;;;;;;4948190;29;20241;-85
2021/01/18 02:15:19;;;;;;;18.13;6.07;;;6.90;99.90;;;;;;4952543;29;20245;-83
2021/01/18 02:18:15;;;;;;;17.33;6.27;;;6.90;99.90;;;;;;4933917;29;20212;-84
2021/01/18 02:21:39;;;;;;;21.43;5.70;;;6.80;99.90;;;;;;4936758;29;20227;-88
2021/01/18 02:29:50;;;;;;;17.87;4.63;;;6.70;99.90;;;;;;5110847;23;20266;-89
2021/01/18 02:33:08;;;;;;;16.37;5.07;;;6.70;99.90;;;;;;4955754;29;20291;-90
2021/01/18 02:36:02;;;;;;;25.23;7.67;;;6.70;99.90;;;;;;4940027;28;20204;-89
2021/01/18 02:38:39;;;;;;;26.73;8.10;;;6.60;99.90;;;;;;4954285;29;20247;-89
2021/01/18 02:41:37;;;;;;;29.07;7.73;;;6.60;99.90;;;;;;4962912;29;20239;-88
2021/01/18 02:44:11;;;;;;;35.40;9.20;;;6.60;99.90;;;;;;4953299;28;20200;-88
2021/01/18 02:46:44;;;;;;;27.23;7.60;;;6.60;99.90;;;;;;4957714;29;20276;-89
2021/01/18 02:49:16;;;;;;;17.23;5.53;;;6.60;99.90;;;;;;4961804;29;20228;-88
2021/01/18 02:52:00;;;;;;;31.93;8.40;;;6.60;99.90;;;;;;4960277;28;20241;-90
2021/01/18 02:54:31;;;;;;;17.70;5.20;;;6.60;99.90;;;;;;4959998;29;20212;-91
2021/01/18 02:57:07;;;;;;;27.47;7.43;;;6.60;99.90;;;;;;4955139;29;20664;-89
2021/01/18 02:59:39;;;;;;;20.37;5.70;;;6.50;99.90;;;;;;4963947;29;20646;-87
2021/01/18 03:02:28;;;;;;;37.27;10.87;;;6.50;99.90;;;;;;4950652;29;20245;-89
2021/01/18 03:05:15;;;;;;;21.93;7.27;;;6.50;99.90;;;;;;4959575;28;20196;-90
2021/01/18 03:08:00;;;;;;;18.17;6.13;;;6.50;99.90;;;;;;4975836;28;20189;-91
2021/01/18 03:10:41;;;;;;;21.40;5.60;;;6.40;99.90;;;;;;4963736;28;20199;-89
2021/01/18 03:13:17;;;;;;;22.97;5.30;;;6.40;99.90;;;;;;4956827;28;20660;-89
2021/01/18 03:15:59;;;;;;;23.83;6.43;;;6.30;99.90;;;;;;4960317;29;20211;-90
2021/01/18 03:18:38;;;;;;;19.43;5.33;;;6.30;99.90;;;;;;4961473;29;20207;-90
2021/01/18 03:21:19;;;;;;;19.73;5.40;;;6.30;99.90;;;;;;4950512;29;20214;-89
2021/01/18 03:23:51;;;;;;;19.13;5.70;;;6.20;99.90;;;;;;4964676;28;20207;-90
2021/01/18 03:28:59;;;;;;;25.67;5.63;;;6.20;99.90;;;;;;5047787;23;20238;-90
2021/01/18 03:31:41;;;;;;;17.13;4.80;;;6.20;99.90;;;;;;4961327;28;20301;-89
2021/01/18 03:36:49;;;;;;;21.20;5.03;;;6.20;99.90;;;;;;4964646;28;20251;-90
2021/01/18 03:39:26;;;;;;;19.27;5.27;;;6.30;99.90;;;;;;4967037;28;20195;-87
2021/01/18 03:44:46;;;;;;;29.90;6.73;;;6.60;99.90;;;;;;4980300;23;20230;-89
2021/01/18 03:47:17;;;;;;;29.60;6.60;;;6.70;99.90;;;;;;4964920;28;20207;-89
2021/01/18 03:49:49;;;;;;;24.17;5.13;;;6.70;99.90;;;;;;4970682;29;20191;-88
2021/01/18 03:52:24;;;;;;;23.53;4.47;;;6.70;99.90;;;;;;4968764;29;20202;-89
2021/01/18 03:55:01;;;;;;;23.73;4.70;;;6.80;99.90;;;;;;4948858;29;20220;-90
2021/01/18 03:57:32;;;;;;;21.00;4.87;;;7.00;99.90;;;;;;4968898;29;20203;-89
2021/01/18 04:00:05;;;;;;;27.73;5.80;;;7.10;99.90;;;;;;4970238;29;20477;-89
2021/01/18 04:02:39;;;;;;;18.97;4.97;;;7.10;99.90;;;;;;4971821;28;20207;-89
2021/01/18 04:05:13;;;;;;;17.07;4.80;;;7.20;99.90;;;;;;4957840;28;20209;-89
2021/01/18 04:07:45;;;;;;;19.27;4.97;;;7.30;99.90;;;;;;4970517;29;20222;-88
2021/01/18 04:10:18;;;;;;;27.23;5.43;;;7.40;99.90;;;;;;4970340;29;20208;-89
2021/01/18 04:12:51;;;;;;;23.20;4.90;;;7.30;99.90;;;;;;4969190;29;20680;-90
2021/01/18 04:15:25;;;;;;;22.43;4.47;;;7.30;99.90;;;;;;4972336;29;20283;-89
2021/01/18 04:18:01;;;;;;;22.13;5.10;;;7.30;99.90;;;;;;4966901;29;20226;-89
2021/01/18 04:20:41;;;;;;;26.57;5.07;;;7.30;99.90;;;;;;4959076;29;20200;-89
2021/01/18 04:23:16;;;;;;;27.47;5.67;;;7.40;99.90;;;;;;4957816;29;20250;-91
2021/01/18 04:25:48;;;;;;;26.33;4.67;;;7.40;99.90;;;;;;4961599;29;20211;-89
2021/01/18 04:28:18;;;;;;;19.87;4.93;;;7.50;99.90;;;;;;4965043;29;20207;-89
2021/01/18 04:30:49;;;;;;;19.53;5.10;;;7.50;99.90;;;;;;4967830;29;20203;-90
2021/01/18 04:33:20;;;;;;;24.73;5.70;;;7.50;99.90;;;;;;4964415;29;20223;-89
2021/01/18 04:35:52;;;;;;;24.87;5.30;;;7.50;99.90;;;;;;4946767;29;20707;-88
2021/01/18 04:38:24;;;;;;;19.73;5.03;;;7.50;99.90;;;;;;4931850;29;20209;-89
2021/01/18 04:40:55;;;;;;;23.80;6.07;;;7.50;99.90;;;;;;4943083;29;20215;-89
2021/01/18 04:43:26;;;;;;;24.20;4.73;;;7.50;99.90;;;;;;4941652;29;20626;-89
2021/01/18 04:45:57;;;;;;;19.23;4.73;;;7.50;99.90;;;;;;4940099;29;20196;-89
2021/01/18 04:48:29;;;;;;;22.77;5.43;;;7.50;99.90;;;;;;4935496;29;20222;-90
2021/01/18 04:51:00;;;;;;;28.33;5.30;;;7.60;99.90;;;;;;4943344;29;20196;-89
2021/01/18 04:53:33;;;;;;;23.73;5.30;;;7.50;99.90;;;;;;4929616;29;20324;-89
2021/01/18 04:56:17;;;;;;;21.47;5.60;;;7.60;99.90;;;;;;4944468;29;20287;-88
2021/01/18 04:58:50;;;;;;;18.23;4.60;;;7.60;99.90;;;;;;4940440;29;20188;-89
2021/01/18 05:01:30;;;;;;;28.00;5.57;;;7.60;99.90;;;;;;4928388;29;20208;-89
2021/01/18 05:04:06;;;;;;;25.10;5.77;;;7.60;99.90;;;;;;4947253;29;20200;-89
2021/01/18 05:06:50;;;;;;;30.37;6.10;;;7.70;99.90;;;;;;4949909;29;20302;-90
2021/01/18 05:09:29;;;;;;;29.10;5.33;;;7.70;99.90;;;;;;4948741;29;20203;-89
2021/01/18 05:12:03;;;;;;;28.53;5.47;;;7.70;99.90;;;;;;4935627;29;20208;-90
2021/01/18 05:14:36;;;;;;;26.13;5.07;;;7.70;99.90;;;;;;4952371;29;20231;-90
2021/01/18 05:17:12;;;;;;;20.00;4.77;;;7.70;99.90;;;;;;4953023;29;20223;-90
2021/01/18 05:19:46;;;;;;;19.97;5.27;;;7.70;99.90;;;;;;4957163;29;20311;-89
2021/01/18 05:22:18;;;;;;;27.63;5.60;;;7.70;99.90;;;;;;4945274;28;20198;-91
2021/01/18 05:24:50;;;;;;;23.43;4.70;;;7.60;99.90;;;;;;4960287;28;20222;-89
2021/01/18 05:27:23;;;;;;;29.27;5.90;;;7.60;99.90;;;;;;4957757;29;20188;-89
2021/01/18 05:29:58;;;;;;;20.00;4.87;;;7.60;99.90;;;;;;4954055;29;20219;-87
2021/01/18 05:32:33;;;;;;;28.70;4.63;;;7.60;99.90;;;;;;4950308;29;20235;-89
2021/01/18 05:35:15;;;;;;;23.33;4.97;;;7.60;99.90;;;;;;4951471;29;20224;-90
2021/01/18 05:38:01;;;;;;;19.27;4.93;;;7.60;99.90;;;;;;4949264;29;20278;-91
2021/01/18 05:40:36;;;;;;;26.33;5.60;;;7.60;99.90;;;;;;4951076;29;20277;-89
2021/01/18 05:43:08;;;;;;;13.17;4.30;;;7.50;99.90;;;;;;4943925;29;20200;-89
2021/01/18 05:45:40;;;;;;;22.67;4.67;;;7.50;99.90;;;;;;4941273;29;20204;-90
2021/01/18 05:48:13;;;;;;;17.07;3.87;;;7.50;99.90;;;;;;4932255;29;20203;-89
2021/01/18 05:50:45;;;;;;;17.47;4.60;;;7.50;99.90;;;;;;4936326;29;20307;-89
2021/01/18 05:53:30;;;;;;;19.23;5.13;;;7.40;99.90;;;;;;4936167;29;20260;-90
2021/01/18 05:56:18;;;;;;;13.90;4.13;;;7.40;99.90;;;;;;4938714;29;20272;-90
2021/01/18 05:58:51;;;;;;;14.43;3.93;;;7.50;99.90;;;;;;4940825;29;20259;-90
2021/01/18 06:01:38;;;;;;;20.63;5.63;;;7.40;99.90;;;;;;4925031;29;20602;-90
2021/01/18 06:04:12;;;;;;;16.67;4.87;;;7.40;99.90;;;;;;4941610;29;20204;-91
2021/01/18 06:06:55;;;;;;;23.13;4.80;;;7.50;99.90;;;;;;4947033;29;20583;-90
2021/01/18 06:09:48;;;;;;;19.07;5.33;;;7.40;99.90;;;;;;4926537;29;20202;-88
2021/01/18 06:12:29;;;;;;;19.87;5.37;;;7.40;99.90;;;;;;4925201;29;20629;-90
2021/01/18 06:15:12;;;;;;;16.77;5.03;;;7.40;99.90;;;;;;4938669;29;20218;-90
2021/01/18 06:17:45;;;;;;;15.90;4.37;;;7.40;99.90;;;;;;4940584;29;20238;-89
2021/01/18 06:20:21;;;;;;;20.73;4.37;;;7.40;99.90;;;;;;4942483;29;20211;-90
2021/01/18 06:22:52;;;;;;;17.93;5.23;;;7.40;99.90;;;;;;4928307;29;20225;-90
2021/01/18 06:25:24;;;;;;;23.07;5.13;;;7.40;99.90;;;;;;4943220;29;20205;-92
2021/01/18 06:27:55;;;;;;;21.93;5.77;;;7.40;99.90;;;;;;4956695;28;20211;-90
2021/01/18 06:30:28;;;;;;;18.43;5.63;;;7.50;99.90;;;;;;4957847;28;20225;-91
2021/01/18 06:33:01;;;;;;;18.70;5.27;;;7.40;99.90;;;;;;4945186;28;20238;-90
2021/01/18 06:35:33;;;;;;;20.60;6.50;;;7.40;99.90;;;;;;4933996;29;20243;-90
2021/01/18 06:38:06;;;;;;;21.47;7.17;;;7.50;99.90;;;;;;4927677;29;20228;-92
2021/01/18 06:40:38;;;;;;;15.57;5.90;;;7.50;99.90;;;;;;4955332;28;20280;-90
2021/01/18 06:43:10;;;;;;;17.37;5.47;;;7.50;99.90;;;;;;4957679;28;20192;-90
2021/01/18 06:45:42;;;;;;;15.53;5.70;;;7.50;99.90;;;;;;4959928;28;20231;-88
2021/01/18 06:48:13;;;;;;;21.20;5.73;;;7.40;99.90;;;;;;4953744;28;20203;-91
2021/01/18 06:50:45;;;;;;;16.53;5.77;;;7.50;99.90;;;;;;4947871;29;20205;-91
2021/01/18 06:53:25;;;;;;;18.23;6.03;;;7.50;99.90;;;;;;4952447;29;20232;-91
2021/01/18 06:56:28;;;;;;;19.10;5.50;;;7.50;99.90;;;;;;4942079;29;20193;-90
2021/01/18 06:59:06;;;;;;;15.07;4.63;;;7.40;99.90;;;;;;4937939;29;20256;-90
2021/01/18 07:01:40;;;;;;;16.90;5.67;;;7.40;99.90;;;;;;4945655;29;20274;-91
2021/01/18 07:04:12;;;;;;;13.73;4.60;;;7.40;99.90;;;;;;4952104;29;20200;-91
2021/01/18 07:06:43;;;;;;;16.33;5.23;;;7.30;99.90;;;;;;4946915;29;20208;-90
2021/01/18 07:09:16;;;;;;;10.43;4.60;;;7.30;99.90;;;;;;4945599;29;20220;-89
2021/01/18 07:12:02;;;;;;;10.97;4.40;;;7.30;99.90;;;;;;4942909;29;20231;-90
2021/01/18 07:14:33;;;;;;;15.13;4.50;;;7.30;99.90;;;;;;4946323;29;20222;-91
2021/01/18 07:17:07;;;;;;;13.40;4.50;;;7.30;99.90;;;;;;4921395;29;20251;-90
2021/01/18 07:19:39;;;;;;;17.17;4.40;;;7.20;99.90;;;;;;4915723;29;20392;-91
2021/01/18 07:22:47;;;;;;;12.97;4.47;;;7.20;99.90;;;;;;4937257;29;20302;-90
2021/01/18 07:25:37;;;;;;;16.47;4.57;;;7.30;99.90;;;;;;4921488;29;20230;-91
2021/01/18 07:28:10;;;;;;;12.47;5.10;;;7.20;99.90;;;;;;4939609;29;20219;-90
2021/01/18 07:30:42;;;;;;;11.83;4.60;;;7.20;99.90;;;;;;4946121;29;20202;-90
2021/01/18 07:33:16;;;;;;;15.43;4.60;;;7.20;99.90;;;;;;4944106;29;20220;-90
2021/01/18 07:35:48;;;;;;;13.03;4.87;;;7.20;99.90;;;;;;4937247;29;20218;-91
2021/01/18 07:38:21;;;;;;;11.77;4.70;;;7.10;99.90;;;;;;4945567;29;20211;-90
2021/01/18 07:41:13;;;;;;;11.23;4.53;;;7.10;99.90;;;;;;4946199;29;20198;-90
2021/01/18 07:43:45;;;;;;;13.43;4.63;;;7.10;99.90;;;;;;4940373;29;20222;-91
2021/01/18 07:46:40;;;;;;;12.30;4.17;;;7.20;99.90;;;;;;4953368;29;20216;-90
2021/01/18 07:49:37;;;;;;;14.73;4.03;;;7.10;99.90;;;;;;4952999;29;20232;-90
2021/01/18 07:52:34;;;;;;;17.23;4.70;;;7.10;99.90;;;;;;4949031;29;20211;-91
2021/01/18 07:55:21;;;;;;;12.27;4.30;;;7.10;99.90;;;;;;4897623;29;20284;-89
2021/01/18 07:57:51;;;;;;;16.37;5.30;;;7.00;99.90;;;;;;4940977;29;20200;-90
2021/01/18 08:00:32;;;;;;;14.33;4.63;;;7.00;99.90;;;;;;4927014;29;20238;-89
2021/01/18 08:03:31;;;;;;;13.43;4.40;;;7.00;99.90;;;;;;4935589;29;20204;-91
2021/01/18 08:06:12;;;;;;;44.77;13.20;;;6.90;99.90;;;;;;4940218;29;20238;-89
2021/01/18 08:08:45;;;;;;;21.90;6.80;;;6.90;99.90;;;;;;4941774;29;20230;-90
2021/01/18 08:11:21;;;;;;;23.27;7.00;;;6.80;99.90;;;;;;4941982;29;20220;-90
2021/01/18 08:13:59;;;;;;;93.33;19.33;;;6.80;99.90;;;;;;4927758;29;20261;-89
2021/01/18 08:16:40;;;;;;;37.57;9.23;;;6.80;99.90;;;;;;4926556;29;20220;-90
2021/01/18 08:19:30;;;;;;;131.07;25.27;;;6.80;99.90;;;;;;4932311;29;20205;-90
2021/01/18 08:22:07;;;;;;;139.67;28.43;;;6.80;99.90;;;;;;4929884;29;20212;-90
2021/01/18 08:25:04;;;;;;;37.23;9.93;;;6.80;99.90;;;;;;4936715;29;20211;-90
2021/01/18 08:27:51;;;;;;;27.37;7.90;;;6.80;99.90;;;;;;4939906;29;20208;-93
2021/01/18 08:34:13;;;;;;;16.37;4.83;;;6.80;99.90;;;;;;4846154;29;20241;-89
2021/01/18 08:36:53;;;;;;;12.23;4.63;;;6.90;99.90;;;;;;4925873;29;20333;-88
2021/01/18 08:39:25;;;;;;;10.40;4.20;;;6.90;99.90;;;;;;4937963;29;21530;-89
2021/01/18 08:41:57;;;;;;;11.17;4.33;;;6.90;99.90;;;;;;4936055;29;20215;-89
2021/01/18 08:44:32;;;;;;;9.73;4.40;;;6.90;99.90;;;;;;4940722;29;20208;-89
2021/01/18 08:47:03;;;;;;;12.13;4.57;;;6.90;99.90;;;;;;4913802;29;20226;-90
2021/01/18 08:49:35;;;;;;;12.70;4.10;;;6.90;99.90;;;;;;4938970;29;20303;-90
2021/01/18 08:52:16;;;;;;;8.90;4.07;;;6.80;99.90;;;;;;4943489;29;20226;-88
2021/01/18 08:54:48;;;;;;;13.63;5.13;;;6.80;99.90;;;;;;4943634;29;20235;-90
2021/01/18 08:57:26;;;;;;;12.73;4.53;;;6.70;99.90;;;;;;4923603;29;20237;-89
2021/01/18 09:00:07;;;;;;;8.83;4.57;;;6.70;99.90;;;;;;4942808;29;20204;-88
2021/01/18 09:02:51;;;;;;;9.43;4.27;;;6.70;99.90;;;;;;4943852;29;20208;-90
2021/01/18 09:05:25;;;;;;;9.73;4.70;;;6.70;99.90;;;;;;4941844;29;20216;-87
2021/01/18 09:08:13;;;;;;;9.50;4.50;;;6.60;99.90;;;;;;4946065;29;20205;-88
2021/01/18 09:10:56;;;;;;;8.40;4.40;;;6.60;99.90;;;;;;4938784;29;20593;-90
2021/01/18 09:13:27;;;;;;;22.20;9.63;;;6.60;99.90;;;;;;4944134;29;20286;-88
2021/01/18 09:15:59;;;;;;;77.40;23.33;;;6.60;99.90;;;;;;4942589;29;20222;-89
2021/01/18 09:18:30;;;;;;;34.73;11.63;;;6.60;99.90;;;;;;4941180;29;20200;-89
2021/01/18 09:21:02;;;;;;;24.53;9.80;;;6.50;99.90;;;;;;4936866;29;20583;-90
2021/01/18 09:23:32;;;;;;;17.70;6.33;;;6.50;99.90;;;;;;4936781;29;20582;-89
2021/01/18 09:26:07;;;;;;;14.20;5.33;;;6.50;99.90;;;;;;4934053;29;20578;-89
2021/01/18 09:28:38;;;;;;;13.10;4.87;;;6.50;99.90;;;;;;4933441;29;20219;-90
2021/01/18 09:31:12;;;;;;;25.03;8.03;;;6.50;99.90;;;;;;4944332;29;20306;-90
2021/01/18 09:33:43;;;;;;;18.07;6.47;;;6.50;99.90;;;;;;4934770;29;20764;-90
2021/01/18 09:36:14;;;;;;;27.93;8.10;;;6.50;99.90;;;;;;4938129;29;20896;-90
2021/01/18 09:38:47;;;;;;;16.03;5.80;;;6.50;99.90;;;;;;4941859;29;20212;-90
2021/01/18 09:41:20;;;;;;;7.43;4.20;;;6.50;99.90;;;;;;4933616;29;20228;-90
2021/01/18 09:43:52;;;;;;;11.90;4.50;;;6.50;99.90;;;;;;4922176;29;20299;-90
2021/01/18 09:46:22;;;;;;;12.43;4.93;;;6.50;99.90;;;;;;4938032;29;20295;-89
2021/01/18 09:48:54;;;;;;;12.30;4.60;;;6.50;99.90;;;;;;4914076;29;20205;-90
2021/01/18 09:51:25;;;;;;;11.27;4.43;;;6.50;99.90;;;;;;4933547;29;20263;-90
2021/01/18 09:53:59;;;;;;;10.67;4.63;;;6.50;99.90;;;;;;4941928;29;20228;-90
2021/01/18 09:56:35;;;;;;;8.20;4.20;;;6.60;99.90;;;;;;4959011;28;20203;-90
2021/01/18 09:59:10;;;;;;;12.03;4.00;;;6.50;99.90;;;;;;4957869;28;20230;-90
2021/01/18 10:01:59;;;;;;;7.30;3.60;;;6.50;99.90;;;;;;4955171;28;20222;-90
2021/01/18 10:04:33;;;;;;;9.67;4.37;;;6.50;99.90;;;;;;4938414;29;20222;-90
2021/01/18 10:07:06;;;;;;;9.20;3.57;;;6.50;99.90;;;;;;4953880;29;20196;-90
2021/01/18 10:09:37;;;;;;;7.43;3.97;;;6.50;99.90;;;;;;4944349;29;20267;-89
2021/01/18 10:12:15;;;;;;;6.53;3.33;;;6.60;99.90;;;;;;4938888;29;20206;-89
2021/01/18 10:14:53;;;;;;;9.23;3.30;;;6.60;99.90;;;;;;4949501;29;20279;-89
2021/01/18 10:17:32;;;;;;;7.53;3.07;;;6.60;99.90;;;;;;4932794;29;20205;-89
2021/01/18 10:20:08;;;;;;;6.50;3.03;;;6.60;99.90;;;;;;4949508;29;20239;-90
2021/01/18 10:22:39;;;;;;;7.17;3.97;;;6.60;99.90;;;;;;4946160;29;20211;-89
2021/01/18 10:25:12;;;;;;;7.20;3.40;;;6.60;99.90;;;;;;4941295;29;20213;-90
2021/01/18 10:27:54;;;;;;;6.40;3.03;;;6.60;99.90;;;;;;4948395;29;20267;-90
2021/01/18 10:30:28;;;;;;;7.13;3.70;;;6.70;99.90;;;;;;4939847;29;20740;-91
2021/01/18 10:33:01;;;;;;;10.40;4.17;;;6.70;99.90;;;;;;4931210;29;20205;-90
2021/01/18 10:35:33;;;;;;;5.83;3.53;;;6.70;99.90;;;;;;4937774;29;20254;-89
2021/01/18 10:38:15;;;;;;;7.87;3.77;;;6.80;99.90;;;;;;4938603;29;20268;-90
2021/01/18 10:41:02;;;;;;;8.47;3.50;;;6.80;99.90;;;;;;4939374;29;20683;-90
2021/01/18 10:43:46;;;;;;;8.70;3.53;;;6.80;99.90;;;;;;4935392;29;20226;-89
2021/01/18 10:46:18;;;;;;;7.03;3.97;;;6.70;99.90;;;;;;4936928;29;20969;-90
2021/01/18 10:48:59;;;;;;;7.83;3.93;;;6.70;99.90;;;;;;4938176;29;20221;-89
2021/01/18 10:51:33;;;;;;;9.07;3.63;;;6.60;99.90;;;;;;4946228;29;20181;-89
2021/01/18 10:54:12;;;;;;;6.00;3.20;;;6.60;99.90;;;;;;4936446;29;20255;-90
2021/01/18 10:56:53;;;;;;;7.87;4.07;;;6.50;99.90;;;;;;4934543;29;20272;-88
2021/01/18 10:59:41;;;;;;;8.07;3.23;;;6.30;99.90;;;;;;4937335;29;20251;-87
2021/01/18 11:02:16;;;;;;;7.97;3.63;;;6.20;99.90;;;;;;4947594;29;20205;-89
2021/01/18 11:04:51;;;;;;;10.47;3.83;;;6.10;99.90;;;;;;4945367;29;20240;-91
2021/01/18 11:07:24;;;;;;;4.80;3.17;;;6.00;99.90;;;;;;4939349;29;20204;-88
2021/01/18 11:09:57;;;;;;;6.03;3.20;;;6.00;99.90;;;;;;4944124;29;20204;-89
2021/01/18 11:12:32;;;;;;;10.40;3.60;;;5.90;99.90;;;;;;4926505;29;20301;-90
2021/01/18 11:15:05;;;;;;;10.57;4.10;;;5.90;99.90;;;;;;4935575;29;20276;-90
2021/01/18 11:17:36;;;;;;;5.73;3.40;;;5.90;99.90;;;;;;4936115;29;20806;-90
2021/01/18 11:20:09;;;;;;;7.30;3.70;;;6.00;99.90;;;;;;4917753;29;20271;-90
2021/01/18 11:22:40;;;;;;;6.10;3.47;;;6.00;99.90;;;;;;4909863;29;20650;-89
2021/01/18 11:25:12;;;;;;;7.63;4.03;;;6.00;99.90;;;;;;4935826;29;20305;-89
2021/01/18 11:27:43;;;;;;;6.67;3.53;;;6.00;99.90;;;;;;4915357;29;20218;-90
2021/01/18 11:30:19;;;;;;;6.03;3.70;;;6.00;99.90;;;;;;4934570;29;20222;-88
2021/01/18 11:32:50;;;;;;;9.53;3.80;;;6.00;99.90;;;;;;4939888;29;20226;-90
2021/01/18 11:35:24;;;;;;;7.17;3.23;;;6.10;99.90;;;;;;4947950;29;20228;-88
2021/01/18 11:37:55;;;;;;;5.43;3.33;;;6.10;99.90;;;;;;4932866;29;20215;-89
2021/01/18 11:40:26;;;;;;;6.73;3.17;;;6.10;99.90;;;;;;4937069;29;20213;-87
2021/01/18 11:42:59;;;;;;;6.53;3.80;;;6.10;99.90;;;;;;4934684;29;20207;-89
2021/01/18 11:45:32;;;;;;;7.60;3.63;;;6.20;99.90;;;;;;4936288;29;20222;-89
2021/01/18 11:48:02;;;;;;;7.80;3.67;;;6.20;99.90;;;;;;4936582;29;20209;-89
2021/01/18 11:50:33;;;;;;;4.60;3.30;;;6.20;99.90;;;;;;4936122;29;20212;-89
2021/01/18 11:53:03;;;;;;;5.50;3.50;;;6.20;99.90;;;;;;4930104;29;20237;-89
2021/01/18 11:55:34;;;;;;;4.73;3.00;;;6.20;99.90;;;;;;4928834;29;20235;-89
2021/01/18 11:58:06;;;;;;;5.87;3.13;;;6.30;99.90;;;;;;4937266;29;20315;-90
2021/01/18 12:00:38;;;;;;;5.50;3.20;;;6.30;99.90;;;;;;4930329;29;20213;-90
2021/01/18 12:03:10;;;;;;;5.50;3.13;;;6.30;99.90;;;;;;4936869;29;20212;-90
2021/01/18 12:05:41;;;;;;;5.07;3.37;;;6.30;99.90;;;;;;4937615;29;20292;-91
2021/01/18 12:08:11;;;;;;;6.10;3.33;;;6.30;99.90;;;;;;4938864;29;20205;-90
2021/01/18 12:10:42;;;;;;;8.80;3.40;;;6.30;99.90;;;;;;4938968;29;20228;-89
2021/01/18 12:13:13;;;;;;;8.17;3.27;;;6.30;99.90;;;;;;4943612;29;20213;-88
2021/01/18 12:15:45;;;;;;;5.50;3.37;;;6.30;99.90;;;;;;4955677;28;20227;-89
2021/01/18 12:18:16;;;;;;;7.30;3.07;;;6.30;99.90;;;;;;4953764;29;20192;-90
2021/01/18 12:20:46;;;;;;;6.47;2.80;;;6.30;99.90;;;;;;4950750;29;20205;-91
2021/01/18 12:23:18;;;;;;;8.30;3.20;;;6.30;99.90;;;;;;4949429;29;20208;-89
2021/01/18 12:25:50;;;;;;;5.50;3.03;;;6.30;99.90;;;;;;4942613;29;20291;-90
2021/01/18 12:28:20;;;;;;;6.27;3.13;;;6.30;99.90;;;;;;4936714;29;20228;-91
2021/01/18 12:30:52;;;;;;;5.77;3.00;;;6.40;99.90;;;;;;4938852;29;20251;-90
2021/01/18 12:33:23;;;;;;;6.07;3.07;;;6.40;99.90;;;;;;4938765;29;20212;-89
2021/01/18 12:35:54;;;;;;;5.50;3.10;;;6.40;99.90;;;;;;4936857;29;20267;-90
2021/01/18 12:38:25;;;;;;;6.07;3.20;;;6.40;99.90;;;;;;4935970;29;20208;-89
2021/01/18 12:40:56;;;;;;;8.47;3.37;;;6.40;99.90;;;;;;4938123;29;20339;-90
2021/01/18 12:43:27;;;;;;;7.10;2.83;;;6.40;99.90;;;;;;4930707;29;20228;-89
2021/01/18 12:46:00;;;;;;;5.43;2.87;;;6.40;99.90;;;;;;4924437;29;20244;-90
2021/01/18 12:48:32;;;;;;;6.47;2.77;;;6.40;99.90;;;;;;4919864;29;20266;-89
2021/01/18 12:51:03;;;;;;;4.73;3.07;;;6.40;99.90;;;;;;4937234;29;20229;-89
2021/01/18 12:53:43;;;;;;;6.47;3.13;;;6.50;99.90;;;;;;4937908;29;20232;-91
2021/01/18 12:56:21;;;;;;;4.00;3.03;;;6.50;99.90;;;;;;4928535;29;20288;-89
2021/01/18 12:58:52;;;;;;;6.33;2.90;;;6.50;99.90;;;;;;4928769;29;20357;-90
2021/01/18 13:01:40;;;;;;;6.73;3.50;;;6.50;99.90;;;;;;4928746;29;20209;-89
2021/01/18 13:04:10;;;;;;;7.07;2.87;;;6.50;99.90;;;;;;4915215;29;20241;-90
2021/01/18 13:06:42;;;;;;;6.77;3.00;;;6.40;99.90;;;;;;4922916;29;20381;-88
2021/01/18 13:09:14;;;;;;;6.20;3.30;;;6.40;99.90;;;;;;4928508;29;20221;-90
2021/01/18 13:11:47;;;;;;;8.37;3.37;;;6.40;99.90;;;;;;4935363;29;20678;-90
2021/01/18 13:14:19;;;;;;;5.10;3.20;;;6.40;99.90;;;;;;4934558;29;20236;-90
2021/01/18 13:16:57;;;;;;;7.47;3.70;;;6.40;99.90;;;;;;4936771;29;20208;-90
2021/01/18 13:19:28;;;;;;;10.00;3.17;;;6.30;99.90;;;;;;4937120;29;20196;-91
2021/01/18 13:22:00;;;;;;;5.87;3.13;;;6.20;99.90;;;;;;4936505;29;20206;-91
2021/01/18 13:24:30;;;;;;;7.33;3.47;;;6.30;99.90;;;;;;4936874;29;20199;-89
2021/01/18 13:27:01;;;;;;;8.03;3.17;;;6.20;99.90;;;;;;4937350;29;20212;-90
2021/01/18 13:29:31;;;;;;;5.87;3.00;;;6.20;99.90;;;;;;4937832;29;20739;-90
2021/01/18 13:32:03;;;;;;;7.20;3.27;;;6.20;99.90;;;;;;4938359;29;20254;-91
2021/01/18 13:34:35;;;;;;;6.20;3.03;;;6.20;99.90;;;;;;4941324;29;20295;-91
2021/01/18 13:37:08;;;;;;;4.17;2.93;;;6.10;99.90;;;;;;4943033;29;20664;-90
2021/01/18 13:39:39;;;;;;;7.90;3.10;;;6.00;99.90;;;;;;4930838;29;20204;-89
2021/01/18 13:42:10;;;;;;;7.23;3.13;;;5.90;99.90;;;;;;4943680;29;20627;-90
2021/01/18 13:44:41;;;;;;;6.07;2.97;;;5.80;99.90;;;;;;4947623;29;20234;-91
2021/01/18 13:47:13;;;;;;;6.37;3.53;;;5.80;99.90;;;;;;5005030;23;20240;-90
2021/01/18 13:49:44;;;;;;;3.97;2.77;;;5.70;99.90;;;;;;5015300;28;20236;-91
2021/01/18 13:52:15;;;;;;;7.03;3.60;;;5.60;99.90;;;;;;5016406;28;20198;-91
2021/01/18 13:54:45;;;;;;;6.60;3.50;;;5.50;99.90;;;;;;5005374;28;20232;-90
2021/01/18 13:57:16;;;;;;;8.67;3.40;;;5.40;99.90;;;;;;5005588;28;20218;-90